Science Hill, KY

6:23 PM EDT on July 22, 2014 (GMT -0400)
HALLS BACKYARD WEATHER (KKYSCIEN1) Elev 1076 ft | 37.19 °N, 84.62 °W | Change Station

Current weather conditions updated 17 seconds ago

Overcast
Overcast
88.8 °F
Feels Like 95 °F
N
0.0
Wind Variable Wind from SW
Gusts 2.0 mph

Tomorrow is forecast to be Cooler than today. Afternoon thunderstorms.

Today
High -- | Low -- °F
--% Chance of Precip.
Yesterday
High -- | Low -- °F
Precip. -- in
6:35 AM 8:54 PM
Waning Crescent, 14% visible
Pressure 30.08 in
Visibility 10.0 miles
Clouds Mostly Cloudy 4500 ft
Mostly Cloudy 5000 ft
Mostly Cloudy 9500 ft
Heat Index 95 °F
Dew Point 71 °F
Humidity 55%
Rainfall 0.00 in
Snow Depth Not available.
UV 2 out of 12
Pollen 4.10 out of 12
Air Quality Not available.
Flu Activity Not available.
METAR KSME 222215Z AUTO 28005KT 10SM BKN045 BKN050 BKN095 31/20 A3008 RMK AO2

More Conditions Fewer Conditions

Pressure 30.08 in
Visibility 10.0 miles
Clouds Mostly Cloudy 4500 ft
Mostly Cloudy 5000 ft
Mostly Cloudy 9500 ft
Heat Index 95 °F
Dew Point 71 °F
Humidity 55%
Rainfall 0.00 in
Snow Depth Not available.
UV 2 out of 12
Pollen 4.10 out of 12
Air Quality Not available.
Flu Activity Not available.
METAR KSME 222215Z AUTO 28005KT 10SM BKN045 BKN050 BKN095 31/20 A3008 RMK AO2

More Conditions Fewer Conditions

10-Day Weather Forecast

Almanac

Astronomy

Jul. 22, 2014 Rise Set
Actual Time 6:35 AM EDT 8:54 PM EDT
Civil Twilight 6:05 AM EDT 9:23 PM EDT
Nautical Twilight 5:29 AM EDT 10:00 PM EDT
Astronomical Twilight 4:49 AM EDT 10:39 PM EDT
Moon 3:07 AM EDT 5:32 PM EDT
Length of Visible Light 15h 17m
Length of Day
14h 18m
Tomorrow will be 1m 29s shorter.
Waning Crescent, 14% of the Moon is Illuminated
Today
Waning Crescent
Jul 26
New
Aug 3
First Quarter
Aug 10
Full
Aug 17
Last Quarter

Today's Extremes

State Highs State Lows

Community

WunderPhotos

Upload Photos

1,736,381 photos uploaded!

Nearby

Snow Depth

Station Depth Elevation
No new snow has been reported.

Earthquake Activity

City Distance Mag. Time & Date
No recent earthquake activity has been reported nearby.
Minimum magnitude displayed is 2.5.

Coastal Water Temperatures

Place Temperature
No Stations Reporting

Nearby Weather Stations

Station Location Temp. Heat Index Dew Point Humidity Wind Precip. Elev Updated Type
HALLS BACKYARD WEATHER, SCIENCE HILL, KY 88.8 °F 95 °F 71 °F 55% SW  at  0.0 mph 0.00 in / hr 1076 ft 6:23 PM EDT Normal
RMR - Somerset, Ferguson, KY 91.8 °F 102 °F 74 °F 57% West  at  1.0 mph 0.00 in / hr 909 ft 6:12 PM EDT Normal
RAWS SOMERSET KY, Ferguson, KY 91 °F 97 °F 70 °F 50% SSW  at  5 mph 0.00 in / hr 920 ft 5:01 PM EDT MADIS
Burnside, KY 95.2 °F 91 °F 44 °F 17% North  at  0.0 mph 0.00 in / hr 1200 ft 6:23 PM EDT Rapid Fire
Colonial Estates, Monticello, KY 92.7 °F 96 °F 67 °F 43% SE  at  2.2 mph 0.00 in / hr 1004 ft 6:20 PM EDT Normal

Show More Stations Show Fewer Stations